Terminal Aerodrome Forecast
Issued by NWS

Home | Current Version | Previous Version | Text Only | Print | Product List | Glossary On
Versions: 1 2 3 4 5 6 7 8 9 10 11 12 13 14 15 16
838
FTUS43 KGRB 251136
TAFAUW
TAF
KAUW 251136Z 2512/2612 29007KT P6SM SCT012 BKN100
      TEMPO 2512/2514 BKN012
     FM251700 28010G18KT P6SM SCT015 BKN030
      TEMPO 2518/2522 -SHRA BKN015
     FM252200 29010G15KT P6SM -SHRA BKN020
     FM260200 28007KT P6SM BKN020 BKN070=

USA.gov is the U.S. government's official web portal to all federal, state and local government web resources and services.